Time;durP1;ratioP1;P1;durP2;ratioP2;P2;SDS_P1;SDS_P2;PMS_P1;PMS_P2;Temp;Humidity;BMP_temperature;BMP_pressure;BME280_temperature;BME280_humidity;BME280_pressure;Samples;Min_cycle;Max_cycle;Signal;HPM_P1;HPM_P2
2022/07/10 00:01:35;;;;;;;10.53;6.40;;;;;;;;;;1755526;81;21081;-64
2022/07/10 00:04:02;;;;;;;8.58;5.55;;;;;;;;;;1761521;81;21555;-65
2022/07/10 00:06:28;;;;;;;6.40;5.22;;;;;;;;;;1759979;81;21340;-64
2022/07/10 00:08:55;;;;;;;7.45;4.40;;;;;;;;;;1775889;80;21034;-64
2022/07/10 00:11:22;;;;;;;5.80;4.47;;;;;;;;;;1767988;80;21126;-64
2022/07/10 00:13:48;;;;;;;9.15;4.70;;;;;;;;;;1790791;80;21498;-63
2022/07/10 00:16:14;;;;;;;7.58;4.90;;;;;;;;;;1776505;80;21086;-64
2022/07/10 00:18:41;;;;;;;5.83;4.50;;;;;;;;;;1773472;80;21053;-64
2022/07/10 00:21:07;;;;;;;6.60;5.10;;;;;;;;;;1783150;80;21071;-65
2022/07/10 00:23:33;;;;;;;6.47;5.00;;;;;;;;;;1778450;80;21063;-65
2022/07/10 00:25:59;;;;;;;6.28;4.47;;;;;;;;;;1775306;80;20990;-65
2022/07/10 00:28:25;;;;;;;7.58;5.08;;;;;;;;;;1772511;80;21095;-65
2022/07/10 00:30:51;;;;;;;6.87;4.17;;;;;;;;;;1786768;80;21132;-64
2022/07/10 00:33:18;;;;;;;5.87;4.20;;;;;;;;;;1781587;80;21506;-64
2022/07/10 00:35:44;;;;;;;6.08;4.40;;;;;;;;;;1781450;79;21067;-65
2022/07/10 00:38:10;;;;;;;4.95;4.20;;;;;;;;;;1781300;80;21063;-64
2022/07/10 00:40:36;;;;;;;6.28;3.83;;;;;;;;;;1792230;80;21061;-64
2022/07/10 00:43:02;;;;;;;5.85;4.50;;;;;;;;;;1773459;80;21054;-64
2022/07/10 00:45:29;;;;;;;5.80;4.33;;;;;;;;;;1782556;78;21158;-64
2022/07/10 00:47:55;;;;;;;5.30;4.33;;;;;;;;;;1778277;79;21118;-64
2022/07/10 00:50:22;;;;;;;5.95;4.12;;;;;;;;;;1777279;80;21059;-64
2022/07/10 00:52:48;;;;;;;5.03;3.70;;;;;;;;;;1782355;80;21031;-64
2022/07/10 00:55:13;;;;;;;5.37;4.00;;;;;;;;;;1775788;80;21049;-64
2022/07/10 00:57:39;;;;;;;4.40;3.60;;;;;;;;;;1761323;80;21026;-64
2022/07/10 01:00:07;;;;;;;5.42;4.20;;;;;;;;;;1728842;81;21066;-64
2022/07/10 01:05:15;;;;;;;5.35;3.50;;;;;;;;;;1716005;81;21623;-65
2022/07/10 01:07:42;;;;;;;4.85;3.65;;;;;;;;;;1724745;83;21053;-65
2022/07/10 01:10:08;;;;;;;4.72;3.37;;;;;;;;;;1678391;83;21131;-66
2022/07/10 01:12:36;;;;;;;5.47;3.67;;;;;;;;;;1722541;82;21124;-65
2022/07/10 01:15:02;;;;;;;5.80;3.70;;;;;;;;;;1748980;80;21109;-65
2022/07/10 01:17:29;;;;;;;4.60;3.52;;;;;;;;;;1756230;81;21584;-65
2022/07/10 01:19:56;;;;;;;5.30;3.62;;;;;;;;;;1743353;81;21057;-65
2022/07/10 01:22:23;;;;;;;4.05;3.52;;;;;;;;;;1771549;79;21048;-65
2022/07/10 01:24:48;;;;;;;4.58;3.50;;;;;;;;;;1775612;79;21075;-65
2022/07/10 01:27:15;;;;;;;3.95;3.52;;;;;;;;;;1737694;81;21066;-65
2022/07/10 01:29:41;;;;;;;4.85;3.30;;;;;;;;;;1737702;81;21541;-65
2022/07/10 01:32:07;;;;;;;3.90;3.47;;;;;;;;;;1738649;81;21049;-65
2022/07/10 01:34:34;;;;;;;6.85;3.50;;;;;;;;;;1771113;80;21025;-64
2022/07/10 01:37:00;;;;;;;4.37;3.33;;;;;;;;;;1766824;80;21022;-65
2022/07/10 01:39:26;;;;;;;5.85;3.50;;;;;;;;;;1767034;80;21521;-65
2022/07/10 01:41:52;;;;;;;5.90;3.55;;;;;;;;;;1777802;79;21549;-65
2022/07/10 01:44:18;;;;;;;5.87;3.80;;;;;;;;;;1807245;79;21119;-65
2022/07/10 01:46:45;;;;;;;5.08;3.70;;;;;;;;;;1780902;79;21079;-65
2022/07/10 01:49:12;;;;;;;4.95;3.92;;;;;;;;;;1752891;80;21028;-65
2022/07/10 01:51:39;;;;;;;5.65;3.75;;;;;;;;;;1785399;80;20976;-65
2022/07/10 01:54:05;;;;;;;8.00;4.20;;;;;;;;;;1754213;80;21078;-65
2022/07/10 01:56:32;;;;;;;7.10;4.10;;;;;;;;;;1791249;78;21079;-63
2022/07/10 01:59:01;;;;;;;4.87;3.67;;;;;;;;;;1780533;78;21048;-64
2022/07/10 02:01:27;;;;;;;6.17;4.17;;;;;;;;;;1763216;80;21048;-65
2022/07/10 02:06:39;;;;;;;8.63;4.40;;;;;;;;;;1754751;80;21051;-65
2022/07/10 02:09:06;;;;;;;7.10;4.25;;;;;;;;;;1710448;83;21474;-64
2022/07/10 02:11:32;;;;;;;6.58;4.62;;;;;;;;;;1744877;81;21099;-65
2022/07/10 02:13:58;;;;;;;5.97;4.42;;;;;;;;;;1754244;80;21096;-65
2022/07/10 02:16:25;;;;;;;6.25;5.03;;;;;;;;;;1759145;81;21591;-65
2022/07/10 02:18:51;;;;;;;5.70;4.60;;;;;;;;;;1754667;81;21059;-65
2022/07/10 02:21:17;;;;;;;5.92;4.53;;;;;;;;;;1760334;79;21580;-65
2022/07/10 02:23:43;;;;;;;8.30;5.37;;;;;;;;;;1743088;80;21045;-65
2022/07/10 02:26:10;;;;;;;8.05;5.30;;;;;;;;;;1753352;81;21112;-64
2022/07/10 02:28:36;;;;;;;7.97;5.42;;;;;;;;;;1759337;81;20990;-65
2022/07/10 02:31:02;;;;;;;6.50;5.00;;;;;;;;;;1743255;80;21564;-65
2022/07/10 02:33:28;;;;;;;7.97;4.87;;;;;;;;;;1745500;81;21480;-65
2022/07/10 02:35:54;;;;;;;7.05;5.20;;;;;;;;;;1747656;80;21087;-65
2022/07/10 02:38:21;;;;;;;6.85;4.35;;;;;;;;;;1746637;81;21046;-64
2022/07/10 02:40:47;;;;;;;7.85;4.83;;;;;;;;;;1734591;80;21030;-64
2022/07/10 02:43:16;;;;;;;6.55;4.80;;;;;;;;;;1755010;80;21049;-65
2022/07/10 02:45:43;;;;;;;6.12;4.97;;;;;;;;;;1752910;80;21100;-65
2022/07/10 02:48:10;;;;;;;6.58;4.70;;;;;;;;;;1770061;80;21055;-65
2022/07/10 02:50:36;;;;;;;4.83;3.72;;;;;;;;;;1781294;80;21060;-64
2022/07/10 02:53:03;;;;;;;6.72;4.65;;;;;;;;;;1775697;78;21107;-65
2022/07/10 02:55:31;;;;;;;8.58;5.50;;;;;;;;;;1752277;80;21108;-65
2022/07/10 02:57:59;;;;;;;7.53;5.40;;;;;;;;;;1756809;80;21080;-65
2022/07/10 03:00:26;;;;;;;6.97;4.95;;;;;;;;;;1772529;79;21539;-65
2022/07/10 03:02:53;;;;;;;8.13;5.47;;;;;;;;;;1758575;80;21692;-65
2022/07/10 03:05:20;;;;;;;7.97;5.20;;;;;;;;;;1744085;81;21010;-64
2022/07/10 03:07:46;;;;;;;8.85;5.65;;;;;;;;;;1759254;79;21447;-64
2022/07/10 03:10:12;;;;;;;8.48;5.65;;;;;;;;;;1753792;80;21000;-65
2022/07/10 03:12:40;;;;;;;8.13;5.50;;;;;;;;;;1756571;81;21142;-64
2022/07/10 03:15:07;;;;;;;8.93;5.90;;;;;;;;;;1753467;81;21025;-64
2022/07/10 03:17:33;;;;;;;7.97;4.97;;;;;;;;;;1748354;80;21052;-65
2022/07/10 03:19:59;;;;;;;8.70;5.33;;;;;;;;;;1747921;80;21065;-64
2022/07/10 03:22:26;;;;;;;6.70;5.17;;;;;;;;;;1733215;81;21041;-65
2022/07/10 03:24:52;;;;;;;6.87;5.45;;;;;;;;;;1742410;81;21212;-64
2022/07/10 03:27:19;;;;;;;7.12;4.85;;;;;;;;;;1748677;80;21117;-64
2022/07/10 03:29:46;;;;;;;6.80;4.60;;;;;;;;;;1773143;80;21119;-65
2022/07/10 03:32:14;;;;;;;8.08;5.25;;;;;;;;;;1789225;80;21036;-64
2022/07/10 03:34:40;;;;;;;7.15;5.15;;;;;;;;;;1787035;80;21131;-65
2022/07/10 03:37:06;;;;;;;7.10;4.53;;;;;;;;;;1748793;81;21044;-65
2022/07/10 03:39:33;;;;;;;5.90;4.30;;;;;;;;;;1745647;81;21060;-65
2022/07/10 03:41:59;;;;;;;6.30;4.37;;;;;;;;;;1717315;82;21072;-65
2022/07/10 03:44:26;;;;;;;6.75;4.70;;;;;;;;;;1739681;81;21025;-62
2022/07/10 03:46:52;;;;;;;5.33;4.42;;;;;;;;;;1726995;82;21010;-63
2022/07/10 03:49:18;;;;;;;6.10;4.28;;;;;;;;;;1756573;79;21052;-63
2022/07/10 03:51:45;;;;;;;5.50;3.83;;;;;;;;;;1775918;79;21012;-63
2022/07/10 03:54:11;;;;;;;8.65;4.45;;;;;;;;;;1784232;80;21013;-62
2022/07/10 03:59:21;;;;;;;6.37;4.70;;;;;;;;;;1745534;81;21036;-64
2022/07/10 04:01:48;;;;;;;6.83;4.50;;;;;;;;;;1723374;82;21059;-63
2022/07/10 04:04:15;;;;;;;7.00;4.08;;;;;;;;;;1719456;82;21111;-64
2022/07/10 04:06:41;;;;;;;6.67;4.37;;;;;;;;;;1758166;79;21048;-65
2022/07/10 04:09:07;;;;;;;6.97;4.25;;;;;;;;;;1745522;80;21119;-64
2022/07/10 04:11:34;;;;;;;6.62;3.87;;;;;;;;;;1773987;79;21060;-65
2022/07/10 04:14:00;;;;;;;4.55;4.10;;;;;;;;;;1760731;80;21080;-65
2022/07/10 04:16:27;;;;;;;6.28;3.90;;;;;;;;;;1739989;82;21580;-65
2022/07/10 04:18:53;;;;;;;5.17;3.60;;;;;;;;;;1764965;80;21095;-65
2022/07/10 04:21:20;;;;;;;5.55;3.60;;;;;;;;;;1723197;80;21111;-65
2022/07/10 04:23:46;;;;;;;4.33;3.47;;;;;;;;;;1718013;83;21053;-65
2022/07/10 04:26:11;;;;;;;6.37;4.05;;;;;;;;;;1737009;80;21492;-65
2022/07/10 04:28:37;;;;;;;6.00;3.75;;;;;;;;;;1753753;80;21049;-66
2022/07/10 04:31:04;;;;;;;4.58;3.98;;;;;;;;;;1786381;79;21041;-65
2022/07/10 04:33:30;;;;;;;4.58;4.08;;;;;;;;;;1780796;80;21096;-66
2022/07/10 04:35:56;;;;;;;4.85;3.70;;;;;;;;;;1765788;80;21068;-65
2022/07/10 04:38:22;;;;;;;5.08;3.95;;;;;;;;;;1708199;82;22181;-66
2022/07/10 04:40:48;;;;;;;6.05;3.83;;;;;;;;;;1756234;81;20996;-66
2022/07/10 04:43:15;;;;;;;4.97;3.80;;;;;;;;;;1723520;81;21103;-66
2022/07/10 04:45:41;;;;;;;5.20;3.60;;;;;;;;;;1757336;80;21102;-66
2022/07/10 04:48:07;;;;;;;4.92;3.70;;;;;;;;;;1766954;80;21595;-66
2022/07/10 04:50:34;;;;;;;4.22;3.40;;;;;;;;;;1780027;79;21033;-66
2022/07/10 04:53:00;;;;;;;4.42;3.58;;;;;;;;;;1744423;82;21048;-66
2022/07/10 04:55:27;;;;;;;5.12;3.87;;;;;;;;;;1744668;82;21048;-66
2022/07/10 04:57:53;;;;;;;5.35;3.70;;;;;;;;;;1744269;82;21087;-66
2022/07/10 05:00:19;;;;;;;5.12;4.00;;;;;;;;;;1755273;79;21064;-66
2022/07/10 05:02:47;;;;;;;4.33;3.90;;;;;;;;;;1752912;81;21052;-66
2022/07/10 05:05:13;;;;;;;7.20;4.22;;;;;;;;;;1751319;80;21056;-66
2022/07/10 05:07:39;;;;;;;5.55;4.33;;;;;;;;;;1717762;81;21599;-65
2022/07/10 05:10:07;;;;;;;5.10;3.67;;;;;;;;;;1751530;79;21544;-65
2022/07/10 05:12:33;;;;;;;5.42;3.70;;;;;;;;;;1707457;82;21031;-65
2022/07/10 05:15:00;;;;;;;4.83;3.45;;;;;;;;;;1739521;81;21606;-65
2022/07/10 05:17:31;;;;;;;4.85;3.27;;;;;;;;;;1750647;81;21016;-65
2022/07/10 05:19:58;;;;;;;4.67;3.72;;;;;;;;;;1754681;80;21507;-66
2022/07/10 05:22:24;;;;;;;5.60;3.60;;;;;;;;;;1748219;81;21046;-66
2022/07/10 05:24:50;;;;;;;4.87;3.40;;;;;;;;;;1745251;81;21063;-66
2022/07/10 05:27:18;;;;;;;4.92;3.52;;;;;;;;;;1756718;80;21111;-67
2022/07/10 05:29:44;;;;;;;4.35;3.40;;;;;;;;;;1764336;80;21021;-67
2022/07/10 05:32:10;;;;;;;4.28;3.47;;;;;;;;;;1733427;81;21021;-67
2022/07/10 05:34:37;;;;;;;5.67;3.80;;;;;;;;;;1758188;81;21045;-65
2022/07/10 05:37:03;;;;;;;5.28;3.65;;;;;;;;;;1745399;80;21049;-65
2022/07/10 05:39:29;;;;;;;6.58;3.65;;;;;;;;;;1762703;79;21548;-65
2022/07/10 05:41:57;;;;;;;4.65;3.20;;;;;;;;;;1770388;80;21052;-65
2022/07/10 05:44:23;;;;;;;6.72;3.47;;;;;;;;;;1776349;79;21001;-66
2022/07/10 05:46:49;;;;;;;4.58;2.85;;;;;;;;;;1755587;80;21131;-65
2022/07/10 05:49:15;;;;;;;4.05;3.60;;;;;;;;;;1746100;80;21539;-65
2022/07/10 05:51:42;;;;;;;5.62;3.10;;;;;;;;;;1703345;83;21044;-66
2022/07/10 05:54:09;;;;;;;4.20;3.08;;;;;;;;;;1768310;79;20986;-65
2022/07/10 05:56:35;;;;;;;8.85;4.15;;;;;;;;;;1759255;80;21072;-66
2022/07/10 05:59:01;;;;;;;4.92;3.30;;;;;;;;;;1765654;80;21114;-66
2022/07/10 06:01:28;;;;;;;4.83;3.75;;;;;;;;;;1764203;79;21151;-64
2022/07/10 06:03:54;;;;;;;4.03;3.15;;;;;;;;;;1766847;79;21048;-65
2022/07/10 06:06:20;;;;;;;4.37;3.40;;;;;;;;;;1766719;80;21167;-66
2022/07/10 06:08:47;;;;;;;3.30;2.90;;;;;;;;;;1743021;81;21052;-65
2022/07/10 06:11:13;;;;;;;5.37;3.30;;;;;;;;;;1747416;81;21031;-65
2022/07/10 06:13:40;;;;;;;5.65;3.17;;;;;;;;;;1717468;81;21033;-66
2022/07/10 06:16:07;;;;;;;4.65;3.17;;;;;;;;;;1753041;80;21076;-65
2022/07/10 06:18:33;;;;;;;4.85;3.52;;;;;;;;;;1746867;82;21538;-65
2022/07/10 06:20:59;;;;;;;4.87;3.92;;;;;;;;;;1743803;80;21555;-65
2022/07/10 06:23:26;;;;;;;4.42;3.50;;;;;;;;;;1737371;81;21047;-64
2022/07/10 06:25:52;;;;;;;4.72;3.22;;;;;;;;;;1752661;81;21045;-66
2022/07/10 06:28:18;;;;;;;5.22;3.50;;;;;;;;;;1745195;81;20998;-66
2022/07/10 06:30:46;;;;;;;7.12;4.37;;;;;;;;;;1756775;80;22077;-65
2022/07/10 06:33:12;;;;;;;6.37;4.37;;;;;;;;;;1741808;81;21565;-65
2022/07/10 06:35:38;;;;;;;6.83;4.00;;;;;;;;;;1732138;80;21201;-65
2022/07/10 06:38:04;;;;;;;5.22;3.20;;;;;;;;;;1768810;79;21083;-64
2022/07/10 06:40:32;;;;;;;5.03;3.33;;;;;;;;;;1753357;80;21034;-64
2022/07/10 06:42:58;;;;;;;5.58;3.42;;;;;;;;;;1732531;81;21115;-64
2022/07/10 06:45:24;;;;;;;4.50;3.22;;;;;;;;;;1755797;78;21048;-64
2022/07/10 06:47:56;;;;;;;4.10;3.25;;;;;;;;;;1750321;80;22286;-64
2022/07/10 06:50:23;;;;;;;3.12;2.83;;;;;;;;;;1726666;81;21124;-65
2022/07/10 06:52:49;;;;;;;5.15;2.98;;;;;;;;;;1751069;80;21033;-65
2022/07/10 06:55:17;;;;;;;5.37;3.30;;;;;;;;;;1754100;81;21076;-65
2022/07/10 06:57:44;;;;;;;5.53;3.40;;;;;;;;;;1748272;80;21080;-65
2022/07/10 07:00:11;;;;;;;5.10;3.27;;;;;;;;;;1748608;80;21524;-64
2022/07/10 07:02:37;;;;;;;18.25;4.45;;;;;;;;;;1750368;80;21575;-63
2022/07/10 07:05:05;;;;;;;8.68;4.08;;;;;;;;;;1744398;80;21028;-64
2022/07/10 07:07:32;;;;;;;15.08;4.78;;;;;;;;;;1751078;80;21040;-64
2022/07/10 07:09:59;;;;;;;3.90;3.50;;;;;;;;;;1724061;80;21097;-65
2022/07/10 07:12:26;;;;;;;4.15;3.30;;;;;;;;;;1747625;80;21025;-65
2022/07/10 07:14:52;;;;;;;4.45;3.17;;;;;;;;;;1756507;80;20982;-65
2022/07/10 07:17:22;;;;;;;4.65;3.60;;;;;;;;;;1744155;80;21064;-65
2022/07/10 07:25:17;;;;;;;5.45;3.22;;;;;;;;;;1738059;81;21193;-64
2022/07/10 07:27:45;;;;;;;5.97;3.90;;;;;;;;;;1732805;81;21056;-66
2022/07/10 07:30:14;;;;;;;4.25;3.55;;;;;;;;;;1714942;81;21051;-65
2022/07/10 07:32:41;;;;;;;4.45;3.62;;;;;;;;;;1742040;81;21084;-65
2022/07/10 07:35:08;;;;;;;4.87;3.60;;;;;;;;;;1767734;79;21078;-64
2022/07/10 07:37:41;;;;;;;6.72;3.65;;;;;;;;;;1752308;79;22200;-64
2022/07/10 07:40:07;;;;;;;;;;;;;;;;;;1731415;80;21056;-64
2022/07/10 07:42:34;;;;;;;4.00;3.17;;;;;;;;;;1752995;79;20436;-64
2022/07/10 07:45:00;;;;;;;5.03;3.60;;;;;;;;;;1773962;80;21135;-64
2022/07/10 07:47:27;;;;;;;4.95;3.52;;;;;;;;;;1763923;80;21038;-60
2022/07/10 07:49:53;;;;;;;4.22;3.72;;;;;;;;;;1746614;80;21108;-68
2022/07/10 07:52:19;;;;;;;5.72;3.85;;;;;;;;;;1760086;79;21013;-63
2022/07/10 07:54:45;;;;;;;4.50;3.70;;;;;;;;;;1743176;81;21068;-64
2022/07/10 07:57:11;;;;;;;5.12;3.72;;;;;;;;;;1746917;81;21532;-64
2022/07/10 07:59:39;;;;;;;5.08;4.20;;;;;;;;;;1752125;81;21528;-64
2022/07/10 08:02:06;;;;;;;4.03;3.58;;;;;;;;;;1766663;79;21072;-64
2022/07/10 08:04:32;;;;;;;4.90;3.65;;;;;;;;;;1779397;79;21043;-64
2022/07/10 08:07:01;;;;;;;6.17;3.83;;;;;;;;;;1779084;79;21033;-65
2022/07/10 08:09:26;;;;;;;5.25;3.75;;;;;;;;;;1766334;80;21017;-65
2022/07/10 08:11:52;;;;;;;4.92;3.80;;;;;;;;;;1753082;80;21083;-65
2022/07/10 08:14:18;;;;;;;5.75;3.98;;;;;;;;;;1761133;80;21596;-65
2022/07/10 08:16:46;;;;;;;5.62;3.60;;;;;;;;;;1766151;80;21025;-64
2022/07/10 08:19:13;;;;;;;4.92;3.72;;;;;;;;;;1746793;81;21049;-64
2022/07/10 08:21:39;;;;;;;5.28;3.85;;;;;;;;;;1757419;80;21072;-64
2022/07/10 08:24:06;;;;;;;4.80;3.58;;;;;;;;;;1778045;80;21069;-65
2022/07/10 08:26:32;;;;;;;4.28;3.40;;;;;;;;;;1777270;80;21032;-64
2022/07/10 08:28:58;;;;;;;6.20;3.67;;;;;;;;;;1778120;80;20993;-65
2022/07/10 08:31:25;;;;;;;5.15;3.52;;;;;;;;;;1772567;80;21025;-63
2022/07/10 08:33:52;;;;;;;3.90;3.50;;;;;;;;;;1777299;79;21535;-66
2022/07/10 08:36:18;;;;;;;4.67;3.72;;;;;;;;;;1777452;79;21025;-64
2022/07/10 08:38:44;;;;;;;6.22;3.50;;;;;;;;;;1780804;79;21025;-64
2022/07/10 08:41:12;;;;;;;4.85;3.80;;;;;;;;;;1784571;79;21508;-64
2022/07/10 08:43:39;;;;;;;5.83;4.00;;;;;;;;;;1786190;80;21170;-64
2022/07/10 08:46:06;;;;;;;4.35;3.62;;;;;;;;;;1790001;79;21048;-64
2022/07/10 08:48:36;;;;;;;3.75;3.33;;;;;;;;;;1781571;79;21084;-64
2022/07/10 08:51:04;;;;;;;4.60;3.60;;;;;;;;;;1777401;79;21056;-65
2022/07/10 08:53:30;;;;;;;4.85;3.58;;;;;;;;;;1781974;79;21041;-64
2022/07/10 08:55:57;;;;;;;4.80;3.75;;;;;;;;;;1776967;79;21555;-64
2022/07/10 08:58:23;;;;;;;4.12;3.30;;;;;;;;;;1780706;79;21016;-64
2022/07/10 09:00:50;;;;;;;4.75;3.67;;;;;;;;;;1789656;79;21083;-64
2022/07/10 09:03:16;;;;;;;5.17;3.50;;;;;;;;;;1772087;79;21619;-64
2022/07/10 09:05:43;;;;;;;4.90;3.10;;;;;;;;;;1746089;81;21024;-64
2022/07/10 09:08:23;;;;;;;4.30;3.47;;;;;;;;;;1758246;80;21100;-64
2022/07/10 09:10:50;;;;;;;8.73;3.50;;;;;;;;;;1754949;79;21064;-64
2022/07/10 09:13:17;;;;;;;4.97;3.37;;;;;;;;;;1777700;79;21047;-64
2022/07/10 09:15:46;;;;;;;4.42;3.47;;;;;;;;;;1781576;79;20997;-64
2022/07/10 09:18:13;;;;;;;4.95;3.50;;;;;;;;;;1786231;79;21018;-64
2022/07/10 09:20:40;;;;;;;48.00;25.62;;;;;;;;;;1771815;80;21610;-63
2022/07/10 09:23:19;;;;;;;47.90;34.65;;;;;;;;;;1776485;79;21012;-63
2022/07/10 09:25:47;;;;;;;5.00;4.00;;;;;;;;;;1750304;81;21020;-64
2022/07/10 09:28:13;;;;;;;6.97;3.80;;;;;;;;;;1759890;81;21093;-64
2022/07/10 09:30:39;;;;;;;4.92;3.37;;;;;;;;;;1745033;81;21037;-64
2022/07/10 09:33:17;;;;;;;4.87;3.52;;;;;;;;;;1741774;81;21083;-64
2022/07/10 09:36:18;;;;;;;5.15;3.40;;;;;;;;;;1717790;81;21113;-65
2022/07/10 09:38:46;;;;;;;4.50;2.90;;;;;;;;;;1726581;81;21131;-64
2022/07/10 09:41:18;;;;;;;4.10;3.20;;;;;;;;;;1730462;82;21091;-63
2022/07/10 09:43:45;;;;;;;3.70;3.05;;;;;;;;;;1733014;82;21033;-65
2022/07/10 09:46:12;;;;;;;4.08;3.20;;;;;;;;;;1753214;81;21067;-64
2022/07/10 09:48:38;;;;;;;3.67;3.00;;;;;;;;;;1744413;81;21559;-64
2022/07/10 09:51:06;;;;;;;5.90;3.30;;;;;;;;;;1744821;81;21024;-64
2022/07/10 09:53:33;;;;;;;4.30;3.27;;;;;;;;;;1769684;79;21029;-64
2022/07/10 09:56:00;;;;;;;5.30;3.70;;;;;;;;;;1717724;82;21106;-64
2022/07/10 09:58:26;;;;;;;6.17;4.50;;;;;;;;;;1721643;83;21512;-64
2022/07/10 10:00:52;;;;;;;18.82;11.73;;;;;;;;;;1712879;83;21127;-65
2022/07/10 10:03:19;;;;;;;19.90;11.68;;;;;;;;;;1689573;85;21104;-65
2022/07/10 10:05:45;;;;;;;5.62;3.45;;;;;;;;;;1738218;81;21115;-64
2022/07/10 10:08:12;;;;;;;5.05;3.00;;;;;;;;;;1738910;80;21577;-64
2022/07/10 10:10:42;;;;;;;4.67;3.85;;;;;;;;;;1739752;80;21124;-65
2022/07/10 10:15:57;;;;;;;6.00;5.33;;;;;;;;;;1811691;78;23001;-63
2022/07/10 10:18:24;;;;;;;8.08;7.28;;;;;;;;;;1793029;80;21033;-64
2022/07/10 10:20:52;;;;;;;6.12;3.75;;;;;;;;;;1792560;80;21049;-63
2022/07/10 10:23:20;;;;;;;4.87;3.50;;;;;;;;;;1791710;80;21053;-63
2022/07/10 10:25:47;;;;;;;4.35;3.52;;;;;;;;;;1782093;80;21009;-64
2022/07/10 10:28:14;;;;;;;7.92;5.60;;;;;;;;;;1770289;80;21095;-64
2022/07/10 10:30:41;;;;;;;8.83;4.50;;;;;;;;;;1774749;80;21068;-65
2022/07/10 10:33:25;;;;;;;4.40;2.65;;;;;;;;;;1791758;80;21103;-65
2022/07/10 10:35:52;;;;;;;5.53;3.12;;;;;;;;;;1792714;80;21051;-64
2022/07/10 10:38:18;;;;;;;3.40;2.70;;;;;;;;;;1793187;80;21036;-65
2022/07/10 10:40:44;;;;;;;3.25;2.90;;;;;;;;;;1755834;80;21004;-64
2022/07/10 10:43:23;;;;;;;4.45;3.42;;;;;;;;;;1786462;80;20989;-64
2022/07/10 10:45:52;;;;;;;3.90;2.90;;;;;;;;;;1769236;80;21040;-64
2022/07/10 10:48:23;;;;;;;3.60;2.52;;;;;;;;;;1792876;80;21048;-64
2022/07/10 10:50:51;;;;;;;6.37;3.35;;;;;;;;;;1793160;80;21567;-64
2022/07/10 10:53:18;;;;;;;7.08;3.70;;;;;;;;;;1789900;80;21083;-64
2022/07/10 10:56:01;;;;;;;7.37;3.55;;;;;;;;;;1792816;80;21563;-64
2022/07/10 10:58:28;;;;;;;3.92;2.92;;;;;;;;;;1792832;80;20964;-65
2022/07/10 11:01:04;;;;;;;7.87;4.78;;;;;;;;;;1792934;80;21066;-64
2022/07/10 11:03:31;;;;;;;11.93;8.25;;;;;;;;;;1761845;80;21069;-64
2022/07/10 11:05:57;;;;;;;7.53;4.65;;;;;;;;;;1755824;82;22003;-65
2022/07/10 11:08:25;;;;;;;7.55;4.97;;;;;;;;;;1752944;81;21087;-64
2022/07/10 11:10:51;;;;;;;4.42;2.70;;;;;;;;;;1740593;80;22079;-65
2022/07/10 11:13:17;;;;;;;3.33;2.58;;;;;;;;;;1751120;80;21055;-64
2022/07/10 11:15:48;;;;;;;7.40;3.20;;;;;;;;;;1738902;80;21064;-64
2022/07/10 11:18:24;;;;;;;4.42;2.90;;;;;;;;;;1720883;82;21528;-65
2022/07/10 11:20:50;;;;;;;5.42;3.25;;;;;;;;;;1736250;82;21079;-65
2022/07/10 11:23:30;;;;;;;7.17;5.15;;;;;;;;;;1736002;82;21034;-65
2022/07/10 11:26:07;;;;;;;11.50;10.05;;;;;;;;;;1718251;82;21045;-63
2022/07/10 11:28:31;;;;;;;6.80;4.28;;;;;;;;;;1700614;82;21047;-64
2022/07/10 11:30:57;;;;;;;4.53;3.42;;;;;;;;;;1709262;83;21048;-64
2022/07/10 11:33:24;;;;;;;3.67;3.25;;;;;;;;;;1716840;83;21217;-68
2022/07/10 11:35:51;;;;;;;4.47;2.50;;;;;;;;;;1716074;82;21064;-65
2022/07/10 11:38:22;;;;;;;3.15;2.40;;;;;;;;;;1715702;82;21001;-64
2022/07/10 11:40:48;;;;;;;4.67;2.40;;;;;;;;;;1716022;83;21034;-65
2022/07/10 11:43:16;;;;;;;5.33;2.70;;;;;;;;;;1711939;82;21047;-64
2022/07/10 11:45:43;;;;;;;3.95;2.50;;;;;;;;;;1711221;84;21066;-64
2022/07/10 11:48:19;;;;;;;3.87;2.30;;;;;;;;;;1676913;85;21249;-64
2022/07/10 11:50:45;;;;;;;9.60;2.33;;;;;;;;;;1677794;85;21641;-65
2022/07/10 11:53:12;;;;;;;4.53;2.98;;;;;;;;;;1684172;84;21104;-65
2022/07/10 11:55:40;;;;;;;2.80;2.30;;;;;;;;;;1694730;84;21043;-64
2022/07/10 11:58:16;;;;;;;6.37;2.42;;;;;;;;;;1722637;83;21049;-65
2022/07/10 12:00:43;;;;;;;4.95;2.40;;;;;;;;;;1707241;82;21034;-65
2022/07/10 12:03:16;;;;;;;5.35;2.87;;;;;;;;;;1709209;82;21080;-65
2022/07/10 12:05:42;;;;;;;2.60;2.40;;;;;;;;;;1711578;84;21052;-65
2022/07/10 12:08:09;;;;;;;4.55;2.27;;;;;;;;;;1711986;84;21041;-66
2022/07/10 12:10:36;;;;;;;2.40;2.20;;;;;;;;;;1711695;84;21045;-65
2022/07/10 12:13:09;;;;;;;3.60;2.22;;;;;;;;;;1713411;82;21068;-65
2022/07/10 12:15:37;;;;;;;4.28;2.25;;;;;;;;;;1723152;82;21053;-64
2022/07/10 12:18:04;;;;;;;4.30;2.27;;;;;;;;;;1741483;82;21596;-65
2022/07/10 12:20:31;;;;;;;8.00;2.47;;;;;;;;;;1755298;80;21016;-64
2022/07/10 12:22:57;;;;;;;6.58;2.72;;;;;;;;;;1743851;80;21111;-64
2022/07/10 12:25:23;;;;;;;12.43;3.22;;;;;;;;;;1768732;81;21112;-65
2022/07/10 12:27:52;;;;;;;6.45;2.70;;;;;;;;;;1717012;83;21586;-64
2022/07/10 12:30:19;;;;;;;3.10;2.30;;;;;;;;;;1716548;82;22174;-64
2022/07/10 12:32:45;;;;;;;4.05;2.35;;;;;;;;;;1727368;82;21026;-65
2022/07/10 12:35:14;;;;;;;9.65;2.87;;;;;;;;;;1718422;82;21075;-65
2022/07/10 12:37:41;;;;;;;5.70;2.67;;;;;;;;;;1721046;80;21513;-65
2022/07/10 12:40:11;;;;;;;4.70;2.47;;;;;;;;;;1725668;82;21053;-64
2022/07/10 12:42:37;;;;;;;4.85;2.20;;;;;;;;;;1741988;82;21092;-64
2022/07/10 12:45:13;;;;;;;3.12;2.50;;;;;;;;;;1745678;82;21112;-65
2022/07/10 12:47:44;;;;;;;4.28;2.35;;;;;;;;;;1748054;82;21001;-64
2022/07/10 12:50:10;;;;;;;4.70;2.60;;;;;;;;;;1742898;80;20954;-65
2022/07/10 12:52:40;;;;;;;4.80;2.85;;;;;;;;;;1739377;81;21068;-65
2022/07/10 12:55:13;;;;;;;3.80;2.35;;;;;;;;;;1773516;81;21104;-65
2022/07/10 12:57:49;;;;;;;5.72;2.50;;;;;;;;;;1773908;81;21044;-65
2022/07/10 13:00:18;;;;;;;3.42;2.67;;;;;;;;;;1747875;80;21076;-64
2022/07/10 13:02:49;;;;;;;5.47;2.67;;;;;;;;;;1714330;83;21021;-65
2022/07/10 13:05:13;;;;;;;4.45;2.50;;;;;;;;;;1714130;83;21533;-65
2022/07/10 13:07:39;;;;;;;5.50;2.70;;;;;;;;;;1712974;83;21073;-65
2022/07/10 13:10:06;;;;;;;4.90;2.90;;;;;;;;;;1730431;82;21042;-65
2022/07/10 13:12:33;;;;;;;3.50;2.50;;;;;;;;;;1717653;83;21483;-64
2022/07/10 13:14:59;;;;;;;3.75;2.33;;;;;;;;;;1719638;83;21062;-65
2022/07/10 13:17:26;;;;;;;5.42;2.87;;;;;;;;;;1725867;83;21522;-65
2022/07/10 13:19:52;;;;;;;3.50;2.10;;;;;;;;;;1725312;82;21027;-65
2022/07/10 13:22:19;;;;;;;2.47;2.15;;;;;;;;;;1697735;83;21116;-65
2022/07/10 13:24:45;;;;;;;3.85;2.17;;;;;;;;;;1704356;84;21120;-65
2022/07/10 13:27:11;;;;;;;4.05;2.33;;;;;;;;;;1697303;83;21132;-65
2022/07/10 13:29:38;;;;;;;2.77;2.20;;;;;;;;;;1690893;83;21533;-64
2022/07/10 13:32:06;;;;;;;4.92;2.62;;;;;;;;;;1691116;85;21056;-64
2022/07/10 13:34:33;;;;;;;5.33;3.20;;;;;;;;;;1725219;83;21015;-64
2022/07/10 13:37:00;;;;;;;3.98;2.50;;;;;;;;;;1725233;83;21040;-65
2022/07/10 13:39:26;;;;;;;5.78;2.40;;;;;;;;;;1723150;82;21056;-64
2022/07/10 13:41:53;;;;;;;4.58;2.75;;;;;;;;;;1738610;82;21025;-64
2022/07/10 13:44:19;;;;;;;5.65;2.60;;;;;;;;;;1719673;83;21048;-65
2022/07/10 13:46:46;;;;;;;3.87;2.50;;;;;;;;;;1719385;83;21018;-65
2022/07/10 13:49:12;;;;;;;3.83;2.22;;;;;;;;;;1715944;83;21047;-65
2022/07/10 13:51:38;;;;;;;3.12;2.35;;;;;;;;;;1719985;83;21561;-65
2022/07/10 13:54:04;;;;;;;2.90;2.30;;;;;;;;;;1728123;82;21502;-65
2022/07/10 13:56:31;;;;;;;3.17;2.60;;;;;;;;;;1696451;84;21025;-65
2022/07/10 13:58:57;;;;;;;5.28;2.90;;;;;;;;;;1714010;83;21540;-65
2022/07/10 14:01:24;;;;;;;4.47;2.50;;;;;;;;;;1707420;83;21074;-65
2022/07/10 14:03:51;;;;;;;3.83;2.50;;;;;;;;;;1722078;83;21084;-65
2022/07/10 14:06:18;;;;;;;3.10;2.50;;;;;;;;;;1723999;83;21088;-64
2022/07/10 14:08:43;;;;;;;3.47;2.52;;;;;;;;;;1718754;82;21583;-65
2022/07/10 14:11:10;;;;;;;2.60;2.40;;;;;;;;;;1724971;82;21037;-64
2022/07/10 14:13:37;;;;;;;5.15;2.42;;;;;;;;;;1725270;82;21025;-65
2022/07/10 14:16:04;;;;;;;3.30;2.30;;;;;;;;;;1718476;83;21608;-65
2022/07/10 14:18:41;;;;;;;13.88;8.48;;;;;;;;;;1715003;83;21021;-63
2022/07/10 14:21:09;;;;;;;2.42;2.10;;;;;;;;;;1716033;83;21080;-64
2022/07/10 14:23:41;;;;;;;3.17;2.40;;;;;;;;;;1709331;82;21065;-64
2022/07/10 14:26:07;;;;;;;3.52;2.20;;;;;;;;;;1714343;84;21022;-65
2022/07/10 14:28:34;;;;;;;4.42;2.50;;;;;;;;;;1727939;82;21002;-64
2022/07/10 14:31:03;;;;;;;5.28;3.02;;;;;;;;;;1709031;82;21037;-64
2022/07/10 14:33:32;;;;;;;3.87;2.40;;;;;;;;;;1747249;82;21245;-65
2022/07/10 14:35:58;;;;;;;3.50;2.58;;;;;;;;;;1691381;82;21081;-65
2022/07/10 14:38:24;;;;;;;3.70;2.33;;;;;;;;;;1730266;80;20997;-65
2022/07/10 14:40:52;;;;;;;3.00;2.30;;;;;;;;;;1748064;82;21017;-64
2022/07/10 14:43:19;;;;;;;3.42;2.20;;;;;;;;;;1748031;82;21040;-64
2022/07/10 14:45:45;;;;;;;2.77;2.30;;;;;;;;;;1766477;80;21052;-64
2022/07/10 14:48:12;;;;;;;5.45;2.33;;;;;;;;;;1755638;81;21544;-64
2022/07/10 14:50:39;;;;;;;5.60;3.00;;;;;;;;;;1748091;82;21092;-64
2022/07/10 14:53:07;;;;;;;4.10;2.40;;;;;;;;;;1748085;82;21079;-64
2022/07/10 14:55:33;;;;;;;5.72;2.80;;;;;;;;;;1747434;80;21032;-64
2022/07/10 14:57:59;;;;;;;3.47;2.58;;;;;;;;;;1709555;82;21073;-65
2022/07/10 15:00:25;;;;;;;4.17;2.50;;;;;;;;;;1757798;80;21060;-65